ADDS METAR Data INFO
IDs: Format: Raw Decoded Include TAF

Data at: 1345 UTC 21 Nov 2017

KRBD 211303Z 16007KT 10SM BKN006 09/08 A2986 RMK AO2 T00940083
KRBD 211253Z 15008KT 10SM SCT007 09/08 A2986 RMK AO2 SLP111 T00940083
KRBD 211226Z AUTO 14008KT 10SM FEW007 09/08 A2985 RMK AO2 T00940083
KRBD 211153Z AUTO 15009KT 10SM CLR 09/08 A2986 RMK AO2 SLP108 T00940078 10111 20089 55010
KRBD 211053Z AUTO 15008KT 10SM CLR 09/07 A2984 RMK AO2 SLP102 T00940072
KRBD 210953Z AUTO 15007KT 10SM CLR 09/06 A2985 RMK AO2 PRESFR SLP105 T00890061
KRBD 210853Z AUTO 14006KT 10SM CLR 09/04 A2989 RMK AO2 SLP118 T00890044 55016
KRBD 210753Z AUTO 15007KT 10SM CLR 10/04 A2988 RMK AO2 SLP115 T01000044
KRBD 210653Z AUTO 16007KT 10SM CLR 10/03 A2990 RMK AO2 SLP121 T01000033
KRBD 210553Z AUTO 18005KT 10SM CLR 11/03 A2993 RMK AO2 SLP133 T01110028 10150 20111 401780072 56008
KRBD 210453Z AUTO 17005KT 10SM CLR 11/03 A2994 RMK AO2 SLP137 T01110028
KRBD 210353Z AUTO 16007KT 10SM CLR 12/02 A2995 RMK AO2 SLP138 T01170017
KRBD 210253Z AUTO 17005KT 10SM CLR 12/01 A2996 RMK AO2 SLP143 T01220011 56009
KRBD 210153Z 17008KT 10SM CLR 13/01 A2996 RMK AO2 SLP144 T01330006
KRBD 210053Z 16006KT 10SM CLR 13/01 A2998 RMK AO2 SLP150 T01330011
KRBD 202353Z 17006KT 10SM CLR 15/01 A2999 RMK AO2 SLP153 T01500006 10178 20150 58005
KRBD 202253Z 17009KT 9SM CLR 17/00 A2999 RMK AO2 SLP155 T01670000
KRBD 202153Z 18011G20KT 7SM FEW002 17/00 A3000 RMK AO2 SLP156 T01720000
KRBD 202053Z 17015G19KT 8SM FEW002 18/00 A3000 RMK AO2 SLP157 T01780000 56039
KRBD 202034Z 18011G20KT 9SM FEW002 18/00 A3002 RMK AO2 T01780000
KRBD 201953Z 17016G19KT 10SM CLR 17/00 A3004 RMK AO2 SLP169 T01720000
KRBD 201853Z 17014G21KT 9SM FEW002 17/M01 A3007 RMK AO2 SLP179 T01671006
KRBD 201753Z 18013G20KT 6SM HZ FEW002 16/00 A3012 RMK AO2 SLP197 T01610000 10167 20072 58027
KRBD 201653Z 17010KT 5SM HZ FEW002 15/00 A3016 RMK AO2 SLP212 T01500000
KRBD 201612Z 18012G16KT 10SM FEW002 14/00 A3018 RMK AO2 T01390000
KRBD 201553Z 18011G17KT 10SM CLR 13/M01 A3019 RMK AO2 SLP221 T01331006
KRBD 201516Z 19006KT 9SM FEW002 12/00 A3020 RMK AO2 T01170000
KRBD 201453Z 19007KT 160V230 10SM CLR 11/00 A3020 RMK AO2 SLP225 T01110000 50011
KRBD 201353Z 20004KT 10SM CLR 08/M01 A3020 RMK AO2 SLP227 T00831011
KRBD 201253Z 19005KT 10SM CLR 08/M01 A3019 RMK AO2 SLP222 T00781011
KRBD 201153Z AUTO 19005KT 10SM CLR 08/M02 A3017 RMK AO2 SLP214 T00781017 10089 20072 55006
KRBD 201053Z AUTO 19005KT 10SM CLR 08/M01 A3016 RMK AO2 SLP213 T00831011
KRBD 200953Z AUTO 21004KT 10SM CLR 07/M01 A3018 RMK AO2 SLP217 T00721011
KRBD 200853Z AUTO 17004KT 10SM CLR 08/M01 A3019 RMK AO2 SLP219 T00781011 58010
KRBD 200753Z AUTO 20004KT 10SM CLR 08/M01 A3019 RMK AO2 SLP222 T00831011
KRBD 200653Z AUTO 21003KT 10SM CLR 08/M02 A3021 RMK AO2 SLP229 T00781017
KRBD 200553Z AUTO 18004KT 10SM CLR 08/M01 A3022 RMK AO2 SLP230 T00831011 10122 20061 401720050 58006
KRBD 200453Z AUTO 17003KT 10SM CLR 07/00 A3023 RMK AO2 SLP235 T00720000
KRBD 200353Z AUTO 00000KT 10SM CLR 09/01 A3023 RMK AO2 SLP236 T00890006
KRBD 200253Z AUTO 00000KT 10SM CLR 09/01 A3023 RMK AO2 SLP238 T00890011 52002
KRBD 200153Z 19003KT 10SM CLR 10/01 A3023 RMK AO2 SLP237 T01000006